AEE2SK LGAV-LGSK
Flight info
| Callsign | AEE2SK |
|---|---|
| Flight time | 0h 21m |
| Altitude | 24000 |
| Route | ROPOX M749 SIGFO |
| Aircraft | A320/M-SDE3FGHIRWY/LB1 |
Departure
| Time | 2026-04-26 18:06 |
|---|---|
| Airport | Athens Eleftherios Venizelos International Airport (LGAV) |
Arrival
| Time | 2026-04-26 18:28 |
|---|---|
| Airport | Skiathos Island National Airport (LGSK) |
| Time | Latitude | Longitude | Altitude | Speed | Heading |
|---|---|---|---|---|---|
| 2026-04-26 17:38 | 37.94396 | 23.95491 | 301 ft | 0 kts | 218° |
| 2026-04-26 17:59 | 37.94391 | 23.95486 | 284 ft | 5 kts | 218° |
| 2026-04-26 17:59 | 37.94367 | 23.95468 | 312 ft | 7 kts | 196° |
| 2026-04-26 17:59 | 37.94319 | 23.95519 | 301 ft | 11 kts | 127° |
| 2026-04-26 17:59 | 37.94272 | 23.95598 | 301 ft | 12 kts | 126° |
| 2026-04-26 18:00 | 37.94239 | 23.95663 | 300 ft | 10 kts | 106° |
| 2026-04-26 18:00 | 37.94280 | 23.95737 | 301 ft | 12 kts | 37° |
| 2026-04-26 18:00 | 37.94351 | 23.95805 | 300 ft | 10 kts | 42° |
| 2026-04-26 18:00 | 37.94362 | 23.95872 | 303 ft | 8 kts | 111° |
| 2026-04-26 18:01 | 37.94363 | 23.95954 | 302 ft | 11 kts | 56° |
| 2026-04-26 18:01 | 37.94429 | 23.96020 | 300 ft | 13 kts | 37° |
| 2026-04-26 18:01 | 37.94509 | 23.96096 | 300 ft | 16 kts | 37° |
| 2026-04-26 18:01 | 37.94603 | 23.96185 | 300 ft | 18 kts | 37° |
| 2026-04-26 18:02 | 37.94689 | 23.96267 | 299 ft | 18 kts | 37° |
| 2026-04-26 18:02 | 37.94757 | 23.96331 | 302 ft | 19 kts | 37° |
| 2026-04-26 18:02 | 37.94900 | 23.96467 | 302 ft | 21 kts | 37° |
| 2026-04-26 18:02 | 37.95016 | 23.96577 | 305 ft | 21 kts | 37° |
| 2026-04-26 18:03 | 37.95092 | 23.96649 | 302 ft | 12 kts | 36° |
| 2026-04-26 18:03 | 37.95160 | 23.96714 | 304 ft | 11 kts | 36° |
| 2026-04-26 18:03 | 37.95228 | 23.96778 | 303 ft | 13 kts | 37° |
| 2026-04-26 18:03 | 37.95297 | 23.96863 | 304 ft | 14 kts | 72° |
| 2026-04-26 18:04 | 37.95267 | 23.96948 | 306 ft | 6 kts | 126° |
| 2026-04-26 18:04 | 37.95240 | 23.96995 | 309 ft | 8 kts | 126° |
| 2026-04-26 18:04 | 37.95189 | 23.97019 | 310 ft | 10 kts | 208° |
| 2026-04-26 18:05 | 37.95145 | 23.96979 | 310 ft | 5 kts | 217° |
| 2026-04-26 18:05 | 37.95037 | 23.96876 | 310 ft | 51 kts | 217° |
| 2026-04-26 18:05 | 37.94561 | 23.96424 | 295 ft | 117 kts | 217° |
| 2026-04-26 18:05 | 37.93771 | 23.95673 | 285 ft | 164 kts | 217° |
| 2026-04-26 18:06 | 37.92790 | 23.94816 | 767 ft | 172 kts | 211° |
| 2026-04-26 18:06 | 37.91734 | 23.94061 | 1442 ft | 175 kts | 208° |
| 2026-04-26 18:06 | 37.90647 | 23.93343 | 2143 ft | 178 kts | 207° |
| 2026-04-26 18:06 | 37.89509 | 23.92585 | 2568 ft | 195 kts | 208° |
| 2026-04-26 18:07 | 37.88236 | 23.91729 | 2897 ft | 220 kts | 208° |
| 2026-04-26 18:07 | 37.86811 | 23.90764 | 3386 ft | 243 kts | 209° |
| 2026-04-26 18:07 | 37.85312 | 23.89747 | 4159 ft | 251 kts | 210° |
| 2026-04-26 18:07 | 37.84263 | 23.89034 | 4767 ft | 255 kts | 210° |
| 2026-04-26 18:08 | 37.82240 | 23.87372 | 5679 ft | 272 kts | 230° |
| 2026-04-26 18:08 | 37.81241 | 23.85344 | 6495 ft | 274 kts | 254° |
| 2026-04-26 18:08 | 37.80984 | 23.82984 | 7351 ft | 272 kts | 278° |
| 2026-04-26 18:08 | 37.81533 | 23.80709 | 8212 ft | 272 kts | 302° |
| 2026-04-26 18:09 | 37.82788 | 23.78933 | 9072 ft | 274 kts | 326° |
| 2026-04-26 18:09 | 37.84539 | 23.77976 | 9923 ft | 279 kts | 349° |
| 2026-04-26 18:09 | 37.86488 | 23.77712 | 10436 ft | 295 kts | 354° |
| 2026-04-26 18:09 | 37.88619 | 23.77475 | 10688 ft | 319 kts | 354° |
| 2026-04-26 18:10 | 37.90911 | 23.77221 | 10876 ft | 343 kts | 354° |
| 2026-04-26 18:10 | 37.93369 | 23.76948 | 11005 ft | 366 kts | 354° |
| 2026-04-26 18:10 | 37.95962 | 23.76653 | 11341 ft | 380 kts | 354° |
| 2026-04-26 18:10 | 37.98615 | 23.76346 | 11916 ft | 385 kts | 354° |
| 2026-04-26 18:11 | 38.01297 | 23.76031 | 12570 ft | 389 kts | 354° |
| 2026-04-26 18:11 | 38.04002 | 23.75715 | 13215 ft | 392 kts | 354° |
| 2026-04-26 18:11 | 38.06736 | 23.75395 | 13836 ft | 396 kts | 355° |
| 2026-04-26 18:11 | 38.09491 | 23.75074 | 14392 ft | 399 kts | 355° |
| 2026-04-26 18:12 | 38.12243 | 23.74754 | 14960 ft | 402 kts | 355° |
| 2026-04-26 18:12 | 38.15040 | 23.74428 | 15380 ft | 405 kts | 355° |
| 2026-04-26 18:12 | 38.17835 | 23.74102 | 14701 ft | 403 kts | 355° |
| 2026-04-26 18:12 | 38.20625 | 23.73778 | 13915 ft | 402 kts | 355° |
| 2026-04-26 18:13 | 38.23400 | 23.73457 | 13125 ft | 398 kts | 355° |
| 2026-04-26 18:13 | 38.26146 | 23.73139 | 12519 ft | 392 kts | 355° |
| 2026-04-26 18:13 | 38.28874 | 23.72817 | 12259 ft | 394 kts | 354° |
| 2026-04-26 18:13 | 38.30719 | 23.72600 | 12098 ft | 394 kts | 354° |
| 2026-04-26 18:14 | 38.34329 | 23.72174 | 11769 ft | 392 kts | 354° |
| 2026-04-26 18:14 | 38.37042 | 23.71855 | 11522 ft | 391 kts | 354° |
| 2026-04-26 18:14 | 38.39743 | 23.71541 | 11277 ft | 389 kts | 354° |
| 2026-04-26 18:14 | 38.42436 | 23.71229 | 11037 ft | 388 kts | 354° |
| 2026-04-26 18:15 | 38.45112 | 23.70920 | 10791 ft | 385 kts | 354° |
| 2026-04-26 18:15 | 38.47735 | 23.70617 | 10548 ft | 369 kts | 354° |
| 2026-04-26 18:15 | 38.50236 | 23.70325 | 10311 ft | 353 kts | 354° |
| 2026-04-26 18:15 | 38.52623 | 23.70042 | 10068 ft | 338 kts | 354° |
| 2026-04-26 18:16 | 38.54916 | 23.69771 | 9909 ft | 323 kts | 354° |
| 2026-04-26 18:16 | 38.59192 | 23.69265 | 9649 ft | 298 kts | 354° |
| 2026-04-26 18:16 | 38.61215 | 23.69028 | 9517 ft | 287 kts | 354° |
| 2026-04-26 18:17 | 38.63165 | 23.68803 | 9381 ft | 277 kts | 354° |
| 2026-04-26 18:17 | 38.65067 | 23.68582 | 9253 ft | 273 kts | 354° |
| 2026-04-26 18:17 | 38.66953 | 23.68360 | 9126 ft | 272 kts | 353° |
| 2026-04-26 18:17 | 38.68841 | 23.68136 | 8994 ft | 272 kts | 354° |
| 2026-04-26 18:18 | 38.70723 | 23.67912 | 8871 ft | 270 kts | 354° |
| 2026-04-26 18:18 | 38.72594 | 23.67690 | 8739 ft | 270 kts | 353° |
| 2026-04-26 18:18 | 38.74463 | 23.67469 | 8612 ft | 270 kts | 353° |
| 2026-04-26 18:18 | 38.76330 | 23.67251 | 8480 ft | 269 kts | 353° |
| 2026-04-26 18:19 | 38.78174 | 23.67035 | 8285 ft | 270 kts | 353° |
| 2026-04-26 18:19 | 38.80035 | 23.66814 | 7866 ft | 267 kts | 353° |
| 2026-04-26 18:19 | 38.81877 | 23.66594 | 7406 ft | 265 kts | 353° |
| 2026-04-26 18:19 | 38.83706 | 23.66374 | 6973 ft | 263 kts | 353° |
| 2026-04-26 18:20 | 38.85526 | 23.66157 | 6540 ft | 261 kts | 353° |
| 2026-04-26 18:20 | 38.87330 | 23.65942 | 6079 ft | 260 kts | 353° |
| 2026-04-26 18:20 | 38.89138 | 23.65728 | 5626 ft | 263 kts | 354° |
| 2026-04-26 18:20 | 38.89757 | 23.65655 | 5480 ft | 264 kts | 354° |
| 2026-04-26 18:21 | 38.92797 | 23.65296 | 4889 ft | 264 kts | 354° |
| 2026-04-26 18:21 | 38.94609 | 23.65081 | 4460 ft | 260 kts | 354° |
| 2026-04-26 18:21 | 38.96312 | 23.64448 | 3917 ft | 254 kts | 325° |
| 2026-04-26 18:21 | 38.97408 | 23.62744 | 3509 ft | 246 kts | 298° |
| 2026-04-26 18:22 | 38.98143 | 23.60827 | 3135 ft | 238 kts | 296° |
| 2026-04-26 18:22 | 38.98620 | 23.59542 | 2885 ft | 233 kts | 296° |
| 2026-04-26 18:22 | 38.99521 | 23.57101 | 2426 ft | 223 kts | 295° |
| 2026-04-26 18:22 | 39.00162 | 23.55364 | 2359 ft | 211 kts | 295° |
| 2026-04-26 18:23 | 39.00786 | 23.53683 | 2308 ft | 203 kts | 296° |
| 2026-04-26 18:23 | 39.01182 | 23.52616 | 2266 ft | 198 kts | 296° |
| 2026-04-26 18:23 | 39.01772 | 23.51037 | 2181 ft | 194 kts | 296° |
| 2026-04-26 18:23 | 39.02553 | 23.48948 | 2091 ft | 193 kts | 296° |
| 2026-04-26 18:24 | 39.02957 | 23.47933 | 2043 ft | 193 kts | 303° |
| 2026-04-26 18:24 | 39.03967 | 23.46844 | 1964 ft | 192 kts | 339° |
| 2026-04-26 18:24 | 39.05230 | 23.46698 | 1910 ft | 174 kts | 11° |
| 2026-04-26 18:24 | 39.06347 | 23.47024 | 1832 ft | 158 kts | 12° |
| 2026-04-26 18:25 | 39.07738 | 23.47387 | 1737 ft | 152 kts | 7° |
| 2026-04-26 18:25 | 39.08440 | 23.47495 | 1640 ft | 148 kts | 5° |
| 2026-04-26 18:25 | 39.09446 | 23.47611 | 1442 ft | 144 kts | 4° |
| 2026-04-26 18:25 | 39.10424 | 23.47731 | 1228 ft | 142 kts | 5° |
| 2026-04-26 18:26 | 39.11404 | 23.47879 | 1027 ft | 142 kts | 7° |
| 2026-04-26 18:26 | 39.12375 | 23.48091 | 840 ft | 141 kts | 10° |
| 2026-04-26 18:26 | 39.13318 | 23.48402 | 643 ft | 138 kts | 16° |
| 2026-04-26 18:26 | 39.14224 | 23.48807 | 552 ft | 138 kts | 20° |
| 2026-04-26 18:27 | 39.15127 | 23.49223 | 429 ft | 137 kts | 18° |
| 2026-04-26 18:27 | 39.16016 | 23.49608 | 240 ft | 136 kts | 18° |
| 2026-04-26 18:27 | 39.16909 | 23.50014 | 70 ft | 136 kts | 18° |
| 2026-04-26 18:27 | 39.17691 | 23.50359 | 41 ft | 83 kts | 19° |
| 2026-04-26 18:28 | 39.17920 | 23.50430 | 42 ft | 12 kts | 319° |
| 2026-04-26 18:28 | 39.17911 | 23.50350 | 42 ft | 10 kts | 240° |
| 2026-04-26 18:28 | 39.17855 | 23.50311 | 39 ft | 1 kts | 200° |
| 2026-04-26 18:28 | 39.17852 | 23.50310 | 39 ft | 0 kts | 200° |
| 2026-04-26 18:29 | 39.17850 | 23.50309 | 39 ft | 0 kts | 199° |
| 2026-04-26 18:29 | 39.17846 | 23.50308 | 39 ft | 0 kts | 199° |
| 2026-04-26 18:29 | 39.17830 | 23.50300 | 39 ft | 1 kts | 199° |
| 2026-04-26 18:29 | 39.17823 | 23.50265 | 39 ft | 6 kts | 278° |
| 2026-04-26 18:30 | 39.17825 | 23.50258 | 39 ft | 6 kts | 282° |
| 2026-04-26 18:30 | 39.17828 | 23.50242 | 39 ft | 9 kts | 286° |
| 2026-04-26 18:30 | 39.17835 | 23.50213 | 39 ft | 2 kts | 288° |
| 2026-04-26 18:30 | 39.17837 | 23.50206 | 39 ft | 0 kts | 288° |